Dalhart, Texas
Current Conditions -  °F | °C
As of 3:53 AM on Sunday 23 Nov 2014 (Local Time) from KDHT Reporting Station
Clear Clear  
Wind Chill: 41°   Ceiling: Unl
Heat Index: 46°   Visibility: 10mi
Dew Point: 23°   Wind: 12mph
Humidity: 40%   Direction: 280°W
Pressure: 29.5"   Gusts: NA
Location:  36.06°N, 102.52°W
Report Text: KDHT 230953Z AUTO 28010KT 10SM CLR 08/M05 A2950 RMK AO2 SLP952 T00781050
Loading
Personal Weather Stations






























Interactive Weather Map New forecast layout! Learn more

10-Day Weather Forecast

Advertisements
Track Severe Weather on mobile